KDV weather

Vunisea Airport
Vunisea, Eastern, Fiji

Public forecast

Using degrees Celsius for public forecast. Weather courtesy of forecast.io.

METAR (pilot weather report)

Report is more than 6 hours old.

Retrieved 2019/09/23 02:00 UTC (7 hours ago):

NFKD 230200Z AUTO 11015KT //// 23/15 Q1020

TAF (pilot weather forecast)

Closest forecast is Nausori International Airport, 65.1 nm (120.5 km) NNE. Retrieved 2019/09/23 06:00 UTC (3 hours ago):

TAF NFNA 230507Z 2306/2406 12009KT 9999 SCT022 SCT050